Time;durP1;ratioP1;P1;durP2;ratioP2;P2;SDS_P1;SDS_P2;PMS_P1;PMS_P2;Temp;Humidity;BMP_temperature;BMP_pressure;BME280_temperature;BME280_humidity;BME280_pressure;Samples;Min_cycle;Max_cycle;Signal;HPM_P1;HPM_P2
2021/09/12 00:01:16;;;;;;;9.90;8.85;;;;;;;16.60;73.52;100869.83;1618212;86;21059;-82
2021/09/12 00:03:42;;;;;;;19.10;9.38;;;;;;;16.61;73.59;100869.38;1625260;86;21099;-82
2021/09/12 00:06:09;;;;;;;13.38;12.15;;;;;;;16.60;73.60;100871.59;1599311;88;21063;-82
2021/09/12 00:08:36;;;;;;;12.80;11.68;;;;;;;16.60;73.63;100874.20;1620091;87;21096;-82
2021/09/12 00:11:03;;;;;;;20.68;14.87;;;;;;;16.59;73.62;100869.88;1618613;87;21073;-82
2021/09/12 00:13:29;;;;;;;10.82;9.55;;;;;;;16.60;73.70;100868.98;1600103;88;21158;-82
2021/09/12 00:15:59;;;;;;;10.72;8.73;;;;;;;16.60;73.69;100867.67;1617240;88;21127;-82
2021/09/12 00:18:25;;;;;;;10.88;9.88;;;;;;;16.57;73.65;100866.03;1605435;88;21058;-82
2021/09/12 00:20:51;;;;;;;11.08;9.98;;;;;;;16.57;73.72;100850.81;1687819;83;21062;-82
2021/09/12 00:23:18;;;;;;;11.85;9.75;;;;;;;16.55;73.73;100863.47;1680157;83;21086;-81
2021/09/12 00:25:44;;;;;;;8.40;7.70;;;;;;;16.54;73.70;100859.61;1645136;85;21077;-81
2021/09/12 00:28:11;;;;;;;10.25;7.78;;;;;;;16.50;73.66;100859.33;1684625;83;21085;-81
2021/09/12 00:30:37;;;;;;;9.78;8.95;;;;;;;16.46;73.68;100858.58;1678093;83;21129;-81
2021/09/12 00:33:03;;;;;;;10.38;9.38;;;;;;;16.44;73.73;100858.24;1678187;83;21069;-81
2021/09/12 00:35:30;;;;;;;16.23;10.95;;;;;;;16.40;73.68;100860.11;1651117;85;21049;-81
2021/09/12 00:37:56;;;;;;;54.45;10.65;;;;;;;16.34;73.71;100856.87;1652009;85;21056;-81
2021/09/12 00:40:23;;;;;;;21.37;8.83;;;;;;;16.32;73.79;100856.92;1681667;84;21266;-81
2021/09/12 00:42:50;;;;;;;9.28;8.28;;;;;;;16.29;73.82;100859.64;1683200;83;21578;-81
2021/09/12 00:45:18;;;;;;;9.18;6.53;;;;;;;16.27;73.78;100864.52;1678522;83;21021;-81
2021/09/12 00:47:46;;;;;;;56.80;8.65;;;;;;;16.21;73.78;100858.61;1684951;83;21074;-81
2021/09/12 00:50:14;;;;;;;10.13;9.25;;;;;;;16.18;73.81;100859.16;1682967;84;21578;-81
2021/09/12 00:52:47;;;;;;;34.67;8.00;;;;;;;16.15;73.86;100861.88;1645197;86;21107;-81
2021/09/12 00:55:15;;;;;;;8.38;7.30;;;;;;;16.12;73.91;100858.92;1679252;83;21121;-81
2021/09/12 00:57:43;;;;;;;6.92;6.28;;;;;;;16.11;73.92;100865.53;1682537;83;20950;-81
2021/09/12 01:00:11;;;;;;;7.05;6.45;;;;;;;16.08;73.91;100866.94;1677098;84;20963;-81
2021/09/12 01:02:38;;;;;;;10.30;8.05;;;;;;;16.05;73.90;100870.51;1686439;84;20961;-81
2021/09/12 01:05:06;;;;;;;;;;;;;;;16.04;73.96;100862.73;1685918;84;21060;-81
2021/09/12 01:07:32;;;;;;;8.38;7.55;;;;;;;16.02;74.21;100864.09;1687512;84;20381;-81
2021/09/12 01:09:59;;;;;;;14.13;8.25;;;;;;;15.99;73.98;100861.59;1685284;83;20994;-81
2021/09/12 01:12:26;;;;;;;16.30;7.95;;;;;;;15.97;73.97;100858.18;1686899;83;21097;-81
2021/09/12 01:14:55;;;;;;;7.78;6.83;;;;;;;15.94;74.00;100856.98;1645409;85;25144;-81
2021/09/12 01:17:30;;;;;;;7.62;6.90;;;;;;;15.90;74.00;100850.17;1647197;85;21052;-81
2021/09/12 01:19:57;;;;;;;10.10;7.75;;;;;;;15.86;74.02;100852.48;1669852;84;21127;-81
2021/09/12 01:22:23;;;;;;;8.38;7.67;;;;;;;15.83;74.11;100850.83;1632998;86;21582;-81
2021/09/12 01:24:50;;;;;;;;;;;;;;;15.83;74.15;100852.58;1643316;85;21081;-81
2021/09/12 01:27:16;;;;;;;15.48;10.55;;;;;;;15.83;74.43;100853.88;1643955;85;20195;-81
2021/09/12 01:29:42;;;;;;;12.90;8.13;;;;;;;15.80;74.18;100852.23;1680852;84;21421;-81
2021/09/12 01:32:09;;;;;;;26.48;9.13;;;;;;;15.79;74.13;100852.28;1668457;84;21081;-80
2021/09/12 01:34:35;;;;;;;11.18;9.70;;;;;;;15.76;74.15;100855.84;1672601;84;21062;-80
2021/09/12 01:37:02;;;;;;;9.50;8.68;;;;;;;15.75;74.17;100851.98;1668244;84;21061;-81
2021/09/12 01:39:28;;;;;;;6.80;6.25;;;;;;;15.72;74.17;100852.94;1676030;84;21066;-81
2021/09/12 01:41:55;;;;;;;5.25;4.85;;;;;;;15.70;74.17;100852.59;1640046;86;21110;-81
2021/09/12 01:44:24;;;;;;;4.97;4.58;;;;;;;15.69;74.25;100849.58;1672417;84;21034;-81
2021/09/12 01:46:55;;;;;;;5.65;5.25;;;;;;;15.66;74.18;100853.14;1636174;85;21140;-81
2021/09/12 01:49:23;;;;;;;8.03;5.42;;;;;;;15.63;74.23;100853.69;1619833;87;21054;-81
2021/09/12 01:51:55;;;;;;;14.03;6.20;;;;;;;15.61;74.25;100852.44;1675017;84;21133;-81
2021/09/12 01:54:22;;;;;;;6.90;6.28;;;;;;;15.59;74.24;100850.81;1638314;86;21372;-81
2021/09/12 01:56:48;;;;;;;6.47;6.08;;;;;;;15.56;74.28;100856.95;1668953;84;21054;-81
2021/09/12 01:59:15;;;;;;;7.20;5.80;;;;;;;15.54;74.29;100853.09;1681597;84;21431;-81
2021/09/12 02:01:41;;;;;;;8.23;6.47;;;;;;;15.52;74.30;100854.89;1680924;84;21126;-81
2021/09/12 02:04:08;;;;;;;7.33;6.80;;;;;;;15.50;74.29;100854.54;1631283;86;21068;-81
2021/09/12 02:06:34;;;;;;;8.83;8.23;;;;;;;15.46;74.29;100848.58;1674754;84;21086;-81
2021/09/12 02:09:01;;;;;;;10.23;9.33;;;;;;;15.45;74.34;100851.23;1636699;86;21113;-81
2021/09/12 02:11:27;;;;;;;12.05;9.45;;;;;;;15.44;74.38;100858.64;1666277;84;21688;-81
2021/09/12 02:13:54;;;;;;;10.32;7.85;;;;;;;15.43;74.40;100856.94;1670676;84;21150;-81
2021/09/12 02:16:26;;;;;;;16.50;10.40;;;;;;;15.42;74.42;100858.69;1673788;84;20964;-81
2021/09/12 02:18:53;;;;;;;14.78;10.45;;;;;;;15.41;74.46;100862.20;1673759;84;21006;-81
2021/09/12 02:21:19;;;;;;;15.55;11.73;;;;;;;15.41;74.50;100862.20;1639411;86;20883;-81
2021/09/12 02:23:45;;;;;;;15.08;7.70;;;;;;;15.41;74.54;100861.34;1636284;86;20902;-81
2021/09/12 02:26:12;;;;;;;16.70;9.15;;;;;;;15.43;74.58;100857.80;1634176;86;20982;-81
2021/09/12 02:28:39;;;;;;;13.03;11.73;;;;;;;15.45;74.53;100859.90;1630558;86;20950;-81
2021/09/12 02:31:05;;;;;;;18.20;14.15;;;;;;;15.46;74.62;100855.54;1624137;86;20991;-81
2021/09/12 02:33:32;;;;;;;16.17;11.15;;;;;;;15.49;74.71;100858.91;1627748;86;20990;-81
2021/09/12 02:36:01;;;;;;;21.40;14.87;;;;;;;15.52;74.69;100864.02;1630980;87;21064;-81
2021/09/12 02:38:30;;;;;;;62.13;17.02;;;;;;;15.54;74.75;100858.30;1638232;86;21413;-81
2021/09/12 02:40:59;;;;;;;39.65;17.00;;;;;;;15.60;74.87;100858.55;1633115;86;21063;-81
2021/09/12 02:43:29;;;;;;;84.32;17.40;;;;;;;15.66;74.90;100859.66;1637412;86;21120;-81
2021/09/12 02:45:55;;;;;;;71.22;15.95;;;;;;;15.70;74.91;100856.05;1644619;86;21026;-81
2021/09/12 02:48:21;;;;;;;25.10;12.85;;;;;;;15.74;74.88;100862.87;1624455;86;21575;-81
2021/09/12 02:50:48;;;;;;;67.27;17.12;;;;;;;15.75;74.87;100858.50;1623272;86;21152;-81
2021/09/12 02:53:14;;;;;;;37.80;12.03;;;;;;;15.77;74.94;100863.22;1639474;86;21013;-81
2021/09/12 02:55:40;;;;;;;24.45;12.68;;;;;;;15.78;74.98;100864.47;1630935;86;21082;-81
2021/09/12 02:58:07;;;;;;;26.17;15.83;;;;;;;15.81;75.01;100860.45;1629225;87;21332;-81
2021/09/12 03:00:39;;;;;;;78.97;17.90;;;;;;;15.84;75.03;100863.41;1637561;86;20994;-81
2021/09/12 03:03:06;;;;;;;34.73;16.42;;;;;;;15.87;75.08;100857.64;1624073;86;21131;-81
2021/09/12 03:05:32;;;;;;;53.48;15.55;;;;;;;15.89;75.10;100860.20;1645853;86;21692;-81
2021/09/12 03:07:59;;;;;;;85.80;20.08;;;;;;;15.94;75.17;100862.65;1627971;87;21420;-81
2021/09/12 03:10:25;;;;;;;;;;;;;;;15.96;75.20;100868.22;1642937;86;21479;-81
2021/09/12 03:12:52;;;;;;;84.25;17.73;;;;;;;16.00;75.67;100872.88;1635439;86;20271;-81
2021/09/12 03:15:18;;;;;;;42.55;19.20;;;;;;;16.04;75.32;100871.86;1628709;86;20994;-81
2021/09/12 03:17:45;;;;;;;66.85;19.55;;;;;;;16.07;75.36;100862.63;1628696;87;21049;-81
2021/09/12 03:20:12;;;;;;;54.27;18.30;;;;;;;16.10;75.37;100862.07;1637881;86;21067;-81
2021/09/12 03:22:39;;;;;;;83.52;19.30;;;;;;;16.14;75.38;100862.78;1619813;87;21080;-81
2021/09/12 03:25:06;;;;;;;36.10;18.75;;;;;;;16.18;75.40;100860.47;1629818;86;21073;-81
2021/09/12 03:27:33;;;;;;;38.25;17.70;;;;;;;16.21;75.45;100857.75;1660678;84;20994;-81
2021/09/12 03:29:59;;;;;;;47.25;16.90;;;;;;;16.23;75.39;100865.08;1680845;84;21057;-81
2021/09/12 03:32:26;;;;;;;64.05;17.17;;;;;;;16.25;75.38;100863.27;1668371;84;20978;-81
2021/09/12 03:34:53;;;;;;;41.10;18.02;;;;;;;16.25;75.38;100858.50;1680637;84;20986;-81
2021/09/12 03:37:20;;;;;;;29.27;18.90;;;;;;;16.23;75.41;100863.31;1634753;86;20997;-81
2021/09/12 03:39:46;;;;;;;49.67;21.02;;;;;;;16.26;75.50;100864.11;1638151;86;21069;-81
2021/09/12 03:42:12;;;;;;;27.02;20.50;;;;;;;16.26;75.55;100866.27;1673107;84;21070;-81
2021/09/12 03:44:39;;;;;;;53.87;21.75;;;;;;;16.29;75.53;100867.47;1669533;84;21061;-81
2021/09/12 03:47:05;;;;;;;59.85;20.97;;;;;;;16.32;75.54;100863.90;1640608;86;21128;-81
2021/09/12 03:49:32;;;;;;;52.58;22.70;;;;;;;16.34;75.59;100867.30;1633777;86;21147;-81
2021/09/12 03:51:58;;;;;;;39.25;22.62;;;;;;;16.37;75.65;100869.35;1667225;84;21082;-81
2021/09/12 03:54:25;;;;;;;37.63;19.92;;;;;;;16.39;75.71;100864.93;1633904;86;25862;-81
2021/09/12 03:56:51;;;;;;;50.75;21.50;;;;;;;16.43;75.64;100869.13;1641256;86;21020;-81
2021/09/12 03:59:18;;;;;;;;;;;;;;;16.46;75.71;100869.03;1672496;84;21058;-81
2021/09/12 04:01:44;;;;;;;45.28;20.45;;;;;;;16.49;76.08;100866.76;1667599;84;20357;-81
2021/09/12 04:04:11;;;;;;;34.95;20.35;;;;;;;16.50;75.76;100869.31;1667163;84;21601;-81
2021/09/12 04:06:37;;;;;;;54.40;21.30;;;;;;;16.54;75.77;100866.14;1640084;86;21073;-81
2021/09/12 04:09:03;;;;;;;60.67;21.93;;;;;;;16.56;75.79;100869.55;1670410;84;21509;-81
2021/09/12 04:11:30;;;;;;;56.92;20.92;;;;;;;16.58;75.83;100869.03;1672924;84;22129;-81
2021/09/12 04:13:57;;;;;;;48.10;20.68;;;;;;;16.59;75.84;100861.59;1667024;84;21122;-81
2021/09/12 04:16:23;;;;;;;51.13;22.35;;;;;;;16.62;75.88;100862.80;1634778;86;21090;-81
2021/09/12 04:18:49;;;;;;;37.05;21.65;;;;;;;16.65;75.89;100859.22;1671179;84;21422;-81
2021/09/12 04:21:17;;;;;;;35.78;20.60;;;;;;;16.68;75.87;100863.02;1671123;84;21114;-81
2021/09/12 04:23:44;;;;;;;36.03;20.45;;;;;;;16.71;75.89;100862.91;1673218;84;21328;-81
2021/09/12 04:26:10;;;;;;;39.75;21.20;;;;;;;16.71;75.88;100859.84;1666774;85;20977;-81
2021/09/12 04:28:36;;;;;;;26.87;21.23;;;;;;;16.74;75.92;100869.33;1654979;85;21070;-81
2021/09/12 04:31:03;;;;;;;48.75;21.02;;;;;;;16.75;75.93;100871.02;1636482;86;21124;-81
2021/09/12 04:33:31;;;;;;;32.53;22.32;;;;;;;16.75;75.94;100870.57;1622059;87;21060;-81
2021/09/12 04:35:58;;;;;;;47.23;21.20;;;;;;;16.77;75.96;100869.20;1642480;86;21081;-81
2021/09/12 04:38:24;;;;;;;32.65;22.45;;;;;;;16.80;76.00;100874.32;1628917;86;21085;-81
2021/09/12 04:40:51;;;;;;;30.80;22.10;;;;;;;16.83;76.02;100866.37;1630294;86;21094;-81
2021/09/12 04:43:17;;;;;;;31.55;21.25;;;;;;;16.85;76.02;100869.77;1639057;86;21456;-81
2021/09/12 04:45:44;;;;;;;;;;;;;;;16.88;76.04;100875.73;1638644;86;21055;-81
2021/09/12 04:48:10;;;;;;;28.23;21.45;;;;;;;16.91;76.38;100872.16;1634307;86;20194;-81
2021/09/12 04:50:36;;;;;;;32.50;22.32;;;;;;;16.93;76.06;100876.87;1624403;86;20997;-81
2021/09/12 04:53:03;;;;;;;32.20;22.40;;;;;;;16.95;76.08;100873.74;1633014;86;21113;-81
2021/09/12 04:55:29;;;;;;;45.70;22.70;;;;;;;16.95;76.09;100873.74;1643575;86;21082;-81
2021/09/12 04:57:55;;;;;;;35.20;23.42;;;;;;;16.99;76.14;100875.78;1647920;86;21053;-81
2021/09/12 05:00:22;;;;;;;58.90;24.37;;;;;;;17.01;76.17;100872.20;1621410;87;21152;-81
2021/09/12 05:02:48;;;;;;;42.13;23.47;;;;;;;17.04;76.17;100872.09;1635526;86;21065;-82
2021/09/12 05:05:14;;;;;;;33.45;23.10;;;;;;;17.07;76.20;100872.42;1632827;86;21077;-81
2021/09/12 05:07:41;;;;;;;48.60;23.00;;;;;;;17.08;76.20;100880.66;1623875;86;20969;-81
2021/09/12 05:10:08;;;;;;;31.50;22.00;;;;;;;17.09;76.24;100887.13;1639996;86;21117;-83
2021/09/12 05:12:35;;;;;;;42.48;23.42;;;;;;;17.12;76.29;100892.23;1624349;86;21464;-82
2021/09/12 05:15:01;;;;;;;59.30;24.02;;;;;;;17.16;76.32;100887.26;1641432;86;21038;-82
2021/09/12 05:17:28;;;;;;;47.10;21.77;;;;;;;17.20;76.33;100886.69;1620348;86;26401;-83
2021/09/12 05:19:54;;;;;;;52.43;23.02;;;;;;;17.22;76.33;100894.01;1640368;86;21462;-83
2021/09/12 05:22:20;;;;;;;53.05;24.70;;;;;;;17.25;76.34;100891.28;1642767;85;20922;-83
2021/09/12 05:24:47;;;;;;;38.70;23.40;;;;;;;17.27;76.40;100895.14;1678253;84;21416;-82
2021/09/12 05:27:14;;;;;;;38.98;22.52;;;;;;;17.29;76.40;100889.40;1679832;84;20941;-82
2021/09/12 05:29:41;;;;;;;31.00;21.40;;;;;;;17.30;76.44;100888.48;1678582;84;20932;-82
2021/09/12 05:32:07;;;;;;;34.50;22.13;;;;;;;17.34;76.45;100897.91;1644295;85;21230;-82
2021/09/12 05:34:34;;;;;;;36.30;21.12;;;;;;;17.37;76.46;100893.87;1646608;85;20943;-82
2021/09/12 05:37:00;;;;;;;33.45;23.32;;;;;;;17.39;76.49;100902.05;1645956;85;20894;-82
2021/09/12 05:39:27;;;;;;;32.00;23.05;;;;;;;17.42;76.52;100901.07;1683763;84;20989;-82
2021/09/12 05:41:53;;;;;;;37.17;22.52;;;;;;;17.44;76.52;100905.78;1682478;84;26614;-82
2021/09/12 05:44:20;;;;;;;32.50;22.50;;;;;;;17.44;76.50;100903.17;1640134;84;21718;-82
2021/09/12 05:46:47;;;;;;;33.78;23.07;;;;;;;17.46;76.51;100907.42;1634084;85;21119;-82
2021/09/12 05:49:14;;;;;;;43.60;24.43;;;;;;;17.49;76.55;100906.45;1639717;85;21077;-82
2021/09/12 05:51:40;;;;;;;35.25;24.43;;;;;;;17.50;76.55;100905.55;1634213;85;21080;-82
2021/09/12 05:54:07;;;;;;;33.90;23.15;;;;;;;17.54;76.58;100911.05;1635934;85;21528;-82
2021/09/12 05:56:33;;;;;;;35.13;24.15;;;;;;;17.54;76.56;100907.97;1682956;83;21122;-82
2021/09/12 05:59:00;;;;;;;38.15;25.70;;;;;;;17.53;76.57;100909.34;1675393;83;21097;-82
2021/09/12 06:01:26;;;;;;;39.98;25.72;;;;;;;17.52;76.62;100915.03;1677988;83;21082;-82
2021/09/12 06:03:54;;;;;;;35.60;25.27;;;;;;;17.53;76.64;100918.04;1671457;83;21066;-81
2021/09/12 06:06:20;;;;;;;35.85;24.30;;;;;;;17.54;76.64;100913.66;1673372;83;21130;-81
2021/09/12 06:08:47;;;;;;;32.25;22.87;;;;;;;17.54;76.66;100901.44;1645107;85;21057;-81
2021/09/12 06:11:13;;;;;;;33.98;23.45;;;;;;;17.57;76.70;100899.61;1621661;87;21057;-81
2021/09/12 06:13:40;;;;;;;34.25;23.35;;;;;;;17.59;76.74;100898.64;1676918;83;21518;-81
2021/09/12 06:16:08;;;;;;;34.85;22.65;;;;;;;17.63;76.74;100905.45;1678386;83;21046;-81
2021/09/12 06:18:35;;;;;;;32.85;24.70;;;;;;;17.68;76.77;100917.03;1679585;83;21130;-81
2021/09/12 06:21:03;;;;;;;32.70;23.12;;;;;;;17.73;76.74;100921.63;1684472;83;20946;-82
2021/09/12 06:23:31;;;;;;;34.67;23.65;;;;;;;17.77;76.79;100918.82;1684313;83;20975;-81
2021/09/12 06:25:57;;;;;;;37.20;23.52;;;;;;;17.82;76.81;100914.70;1688047;83;20970;-80
2021/09/12 06:28:27;;;;;;;33.25;23.75;;;;;;;17.88;76.83;100914.45;1689814;83;20966;-80
2021/09/12 06:30:53;;;;;;;35.48;25.52;;;;;;;17.94;76.84;100905.05;1650952;85;21383;-80
2021/09/12 06:33:19;;;;;;;29.77;22.95;;;;;;;18.01;76.85;100908.26;1631902;85;21324;-80
2021/09/12 06:35:49;;;;;;;40.00;25.23;;;;;;;18.07;76.81;100920.63;1685594;83;20943;-80
2021/09/12 06:38:15;;;;;;;37.95;25.12;;;;;;;18.11;76.87;100913.50;1690030;83;20870;-80
2021/09/12 06:40:41;;;;;;;37.15;24.98;;;;;;;18.18;76.92;100911.87;1686876;83;21009;-80
2021/09/12 06:43:08;;;;;;;41.95;25.85;;;;;;;18.23;76.88;100905.09;1690122;83;21424;-81
2021/09/12 06:45:35;;;;;;;31.87;24.15;;;;;;;18.26;76.90;100913.28;1692471;83;21086;-82
2021/09/12 06:48:02;;;;;;;39.90;26.90;;;;;;;18.31;76.92;100910.85;1687140;83;21063;-78
2021/09/12 06:50:29;;;;;;;39.42;26.33;;;;;;;18.37;76.93;100906.66;1650405;85;21093;-78
2021/09/12 06:52:56;;;;;;;36.75;25.37;;;;;;;18.44;76.94;100907.25;1649552;85;20970;-78
2021/09/12 06:55:24;;;;;;;40.23;26.45;;;;;;;18.48;76.87;100904.42;1680377;83;20949;-78
2021/09/12 06:57:50;;;;;;;43.35;26.75;;;;;;;18.53;76.95;100905.53;1686804;83;20902;-78
2021/09/12 07:00:17;;;;;;;39.85;27.27;;;;;;;18.65;77.02;100917.27;1682867;83;20970;-78
2021/09/12 07:02:44;;;;;;;37.58;26.15;;;;;;;18.76;77.03;100922.84;1645672;85;21415;-78
2021/09/12 07:05:11;;;;;;;38.83;28.30;;;;;;;18.85;77.00;100912.80;1687494;83;20934;-78
2021/09/12 07:07:38;;;;;;;35.95;26.55;;;;;;;18.94;76.98;100910.69;1687235;84;20902;-78
2021/09/12 07:10:09;;;;;;;38.13;27.67;;;;;;;19.00;76.91;100907.33;1649222;85;21470;-78
2021/09/12 07:12:35;;;;;;;36.60;26.48;;;;;;;19.08;76.95;100913.53;1681447;83;20970;-78
2021/09/12 07:15:01;;;;;;;36.10;26.40;;;;;;;19.31;77.13;100909.80;1651836;85;20938;-78
2021/09/12 07:17:28;;;;;;;38.63;26.20;;;;;;;19.64;77.14;100915.23;1638149;86;27564;-78
2021/09/12 07:19:54;;;;;;;35.00;25.85;;;;;;;19.86;76.99;100917.63;1639011;86;21443;-78
2021/09/12 07:22:23;;;;;;;32.65;24.55;;;;;;;19.99;76.89;100916.09;1653653;85;21470;-78
2021/09/12 07:24:49;;;;;;;34.78;24.92;;;;;;;20.03;76.74;100918.48;1694871;83;20970;-78
2021/09/12 07:27:15;;;;;;;32.73;26.27;;;;;;;20.05;76.76;100922.34;1661810;85;20970;-78
2021/09/12 07:29:42;;;;;;;34.85;25.75;;;;;;;20.21;77.04;100919.34;1695064;83;20911;-78
2021/09/12 07:32:08;;;;;;;40.90;26.15;;;;;;;20.53;77.06;100919.45;1693181;83;21361;-78
2021/09/12 07:34:35;;;;;;;32.35;25.25;;;;;;;20.61;76.85;100924.69;1658598;85;21557;-78
2021/09/12 07:37:02;;;;;;;32.50;26.15;;;;;;;20.74;76.99;100924.89;1682274;83;20922;-78
2021/09/12 07:39:28;;;;;;;30.40;24.18;;;;;;;21.03;76.82;100933.35;1649960;85;21381;-78
2021/09/12 07:41:55;;;;;;;33.60;25.77;;;;;;;21.07;76.67;100929.63;1651870;85;21557;-78
2021/09/12 07:44:21;;;;;;;32.23;25.50;;;;;;;21.08;76.58;100930.47;1594403;88;21555;-78
2021/09/12 07:46:49;;;;;;;35.55;24.98;;;;;;;21.07;76.61;100933.57;1653173;85;21391;-78
2021/09/12 07:49:15;;;;;;;32.00;24.10;;;;;;;21.04;76.57;100942.09;1690705;83;21360;-78
2021/09/12 07:51:41;;;;;;;29.63;25.35;;;;;;;21.07;76.59;100935.35;1647857;85;20930;-78
2021/09/12 07:54:08;;;;;;;32.90;26.02;;;;;;;21.10;76.58;100934.72;1678306;84;21397;-78
2021/09/12 07:56:34;;;;;;;37.08;26.90;;;;;;;21.21;76.67;100935.91;1645003;85;20985;-78
2021/09/12 07:59:00;;;;;;;31.82;25.60;;;;;;;21.35;76.62;100936.85;1641011;85;21396;-78
2021/09/12 08:01:27;;;;;;;27.20;23.18;;;;;;;21.52;76.62;100932.44;1653542;85;21406;-78
2021/09/12 08:03:53;;;;;;;25.82;22.32;;;;;;;21.70;76.52;100943.23;1684843;83;21468;-78
2021/09/12 08:06:19;;;;;;;25.55;20.62;;;;;;;21.85;76.44;100945.43;1636315;85;20949;-78
2021/09/12 08:08:46;;;;;;;26.77;20.97;;;;;;;21.87;76.13;100947.51;1686801;83;21443;-78
2021/09/12 08:11:12;;;;;;;24.45;21.87;;;;;;;21.86;76.18;100942.71;1681522;83;20915;-78
2021/09/12 08:13:39;;;;;;;28.25;22.48;;;;;;;21.97;76.34;100945.57;1682085;83;21840;-78
2021/09/12 08:16:07;;;;;;;24.63;21.73;;;;;;;22.05;76.15;100946.48;1621527;86;33482;-78
2021/09/12 08:18:35;;;;;;;25.57;21.62;;;;;;;22.17;76.19;100946.23;1680525;83;24959;-78
2021/09/12 08:21:02;;;;;;;26.57;21.60;;;;;;;22.29;76.16;100948.99;1677652;84;21513;-78
2021/09/12 08:23:28;;;;;;;;;;;;;;;22.38;76.09;100949.73;1657414;86;21545;-78
2021/09/12 08:25:55;;;;;;;26.73;21.42;;;;;;;22.44;75.79;100949.83;1655550;84;20594;-78
2021/09/12 08:28:21;;;;;;;21.82;19.52;;;;;;;22.55;76.03;100953.98;1656698;85;20954;-78
2021/09/12 08:30:48;;;;;;;20.23;17.90;;;;;;;22.64;75.89;100945.53;1655354;84;21394;-78
2021/09/12 08:33:16;;;;;;;18.35;16.27;;;;;;;22.68;76.02;100931.22;1663445;85;21476;-78
2021/09/12 08:35:44;;;;;;;17.75;16.15;;;;;;;23.06;75.83;100950.42;1660659;85;21442;-78
2021/09/12 08:38:12;;;;;;;17.67;15.98;;;;;;;23.35;75.91;100949.91;1652048;86;20961;-79
2021/09/12 08:40:39;;;;;;;18.00;16.20;;;;;;;23.69;76.02;100955.18;1611624;86;21493;-77
2021/09/12 08:43:08;;;;;;;17.10;14.95;;;;;;;23.95;75.96;100956.93;1625829;86;20897;-76
2021/09/12 08:45:35;;;;;;;17.25;15.55;;;;;;;24.33;75.98;100959.69;1626312;86;20955;-76
2021/09/12 08:48:03;;;;;;;16.60;15.18;;;;;;;24.53;75.55;100966.70;1634577;86;21393;-76
2021/09/12 08:50:30;;;;;;;18.82;16.93;;;;;;;24.80;75.35;100956.86;1602760;87;21879;-76
2021/09/12 08:52:56;;;;;;;20.70;16.65;;;;;;;24.80;75.00;100958.19;1626227;86;21342;-76
2021/09/12 08:55:24;;;;;;;17.90;16.20;;;;;;;24.57;74.65;100957.61;1630163;86;20985;-76
2021/09/12 08:57:53;;;;;;;16.35;14.85;;;;;;;24.29;74.56;100956.88;1626797;87;21573;-76
2021/09/12 09:00:23;;;;;;;19.07;17.17;;;;;;;24.20;74.65;100958.78;1628987;86;21415;-76
2021/09/12 09:02:50;;;;;;;17.57;15.98;;;;;;;24.06;74.42;100954.42;1622865;86;20941;-76
2021/09/12 09:05:21;;;;;;;17.55;16.00;;;;;;;23.89;74.32;100961.80;1627121;86;20906;-76
2021/09/12 09:07:51;;;;;;;17.20;15.60;;;;;;;23.76;74.23;100954.69;1625453;86;20917;-76
2021/09/12 09:10:19;;;;;;;17.35;15.85;;;;;;;23.68;74.20;100957.45;1587831;89;21417;-76
2021/09/12 09:12:46;;;;;;;15.75;14.15;;;;;;;23.63;74.11;100956.90;1626230;86;20971;-76
2021/09/12 09:15:20;;;;;;;13.88;12.65;;;;;;;23.57;74.01;100948.91;1629808;86;20950;-76
2021/09/12 09:17:52;;;;;;;14.73;13.32;;;;;;;23.38;73.68;100934.72;1617923;86;21466;-76
2021/09/12 09:20:29;;;;;;;14.45;13.18;;;;;;;23.36;73.70;100956.88;1630704;87;20968;-76
2021/09/12 09:22:59;;;;;;;14.50;13.10;;;;;;;23.34;73.69;100958.77;1627544;86;21446;-76
2021/09/12 09:25:28;;;;;;;15.35;13.85;;;;;;;23.32;73.54;100950.95;1628344;86;20958;-78
2021/09/12 09:28:09;;;;;;;14.93;13.13;;;;;;;23.23;73.33;100944.09;1638691;86;21473;-77
2021/09/12 09:30:57;;;;;;;13.72;12.30;;;;;;;23.15;73.29;100940.61;1630401;86;21123;-78
2021/09/12 09:33:29;;;;;;;12.82;11.68;;;;;;;23.10;73.05;100945.33;1619214;86;20882;-78
2021/09/12 09:36:04;;;;;;;11.80;10.80;;;;;;;23.01;73.00;100946.75;1627820;86;20985;-78
2021/09/12 09:38:36;;;;;;;10.70;9.70;;;;;;;22.86;72.80;100949.05;1627917;86;21296;-78
2021/09/12 09:41:09;;;;;;;10.78;9.28;;;;;;;22.76;72.69;100950.05;1632405;86;20922;-78
2021/09/12 09:43:48;;;;;;;10.10;9.08;;;;;;;22.62;72.59;100942.61;1642405;86;21504;-78
2021/09/12 09:46:41;;;;;;;9.98;9.08;;;;;;;22.57;72.59;100938.94;1635645;86;20875;-79
2021/09/12 09:49:28;;;;;;;10.20;9.40;;;;;;;22.49;72.45;100945.61;1630604;86;20973;-79
2021/09/12 09:52:01;;;;;;;11.35;10.35;;;;;;;22.43;72.36;100942.87;1628497;86;20921;-79
2021/09/12 09:54:30;;;;;;;10.45;9.45;;;;;;;22.39;72.27;100938.72;1627837;86;20905;-79
2021/09/12 09:56:58;;;;;;;8.75;8.05;;;;;;;22.37;72.18;100939.28;1638445;86;20962;-79
2021/09/12 09:59:29;;;;;;;8.75;7.53;;;;;;;22.39;72.17;100942.67;1630237;86;20963;-79
2021/09/12 10:01:58;;;;;;;6.17;5.62;;;;;;;22.46;72.07;100937.41;1627201;86;20969;-79
2021/09/12 10:04:28;;;;;;;6.30;5.60;;;;;;;22.57;72.05;100928.39;1628312;86;20878;-79
2021/09/12 10:06:56;;;;;;;6.58;5.00;;;;;;;22.68;71.92;100929.05;1630426;86;20921;-79
2021/09/12 10:09:23;;;;;;;6.58;4.60;;;;;;;22.79;71.85;100934.55;1636251;86;20918;-79
2021/09/12 10:11:54;;;;;;;;;;;;;;;22.87;71.63;100928.33;1605001;88;20970;-79
2021/09/12 10:14:50;;;;;;;5.75;4.10;;;;;;;22.88;71.07;100922.55;1626074;86;20145;-78
2021/09/12 10:17:24;;;;;;;5.80;4.08;;;;;;;22.85;71.31;100923.62;1631915;86;20909;-78
2021/09/12 10:20:08;;;;;;;4.05;3.75;;;;;;;22.85;71.22;100926.73;1677509;84;20961;-78
2021/09/12 10:22:57;;;;;;;8.00;3.80;;;;;;;22.93;71.17;100923.96;1648467;85;20949;-79
2021/09/12 10:25:25;;;;;;;4.15;3.85;;;;;;;23.03;70.85;100921.59;1654552;85;21428;-78
2021/09/12 10:28:04;;;;;;;3.87;3.58;;;;;;;23.07;70.92;100913.39;1656909;86;20933;-78
2021/09/12 10:30:42;;;;;;;5.03;3.87;;;;;;;23.10;70.75;100919.80;1657074;85;21395;-77
2021/09/12 10:33:19;;;;;;;4.35;4.00;;;;;;;23.09;70.61;100918.10;1653220;85;20965;-78
2021/09/12 10:36:01;;;;;;;4.15;3.83;;;;;;;23.05;70.42;100920.55;1656975;85;20966;-79
2021/09/12 10:38:38;;;;;;;4.20;3.80;;;;;;;22.94;70.34;100919.53;1651462;85;20966;-79
2021/09/12 10:41:09;;;;;;;4.22;3.67;;;;;;;22.85;70.31;100908.27;1665158;84;20868;-78
2021/09/12 10:43:45;;;;;;;4.17;3.58;;;;;;;22.89;70.38;100901.36;1657758;85;20912;-78
2021/09/12 10:46:17;;;;;;;3.75;3.45;;;;;;;22.98;70.21;100906.06;1615645;87;20903;-79
2021/09/12 10:49:04;;;;;;;6.12;3.90;;;;;;;22.98;70.04;100903.42;1613083;86;20902;-79
2021/09/12 10:51:31;;;;;;;4.42;3.30;;;;;;;22.99;69.93;100897.67;1625611;86;20893;-79
2021/09/12 10:54:00;;;;;;;3.75;3.22;;;;;;;23.00;69.77;100899.37;1616427;86;20926;-79
2021/09/12 10:56:30;;;;;;;3.37;3.17;;;;;;;23.03;69.74;100895.22;1665020;85;20930;-77
2021/09/12 10:59:11;;;;;;;3.22;3.02;;;;;;;23.10;69.73;100904.44;1671104;83;20923;-77
2021/09/12 11:01:46;;;;;;;5.75;3.47;;;;;;;23.20;69.59;100901.59;1664589;83;20922;-77
2021/09/12 11:04:16;;;;;;;3.58;3.27;;;;;;;23.30;69.48;100901.37;1666790;85;21013;-77
2021/09/12 11:06:47;;;;;;;4.92;3.42;;;;;;;23.37;69.33;100900.51;1668168;83;20930;-77
2021/09/12 11:09:23;;;;;;;3.47;3.15;;;;;;;23.42;69.25;100896.59;1663795;85;20914;-77
2021/09/12 11:12:04;;;;;;;3.87;3.55;;;;;;;23.50;69.10;100902.70;1671107;83;20954;-77
2021/09/12 11:14:31;;;;;;;4.00;3.15;;;;;;;23.52;68.98;100891.56;1664379;83;20914;-77
2021/09/12 11:17:09;;;;;;;6.45;3.50;;;;;;;23.56;68.92;100895.73;1684202;83;20972;-77
2021/09/12 11:19:37;;;;;;;4.22;3.52;;;;;;;23.58;68.82;100889.88;1686012;83;20986;-77